createdAt,value
2022-11-29T00:00:31.037Z,59.99
2022-11-29T00:03:22.712Z,59.87
2022-11-29T00:05:55.583Z,59.81
2022-11-29T00:08:30.066Z,59.47
2022-11-29T00:11:06.191Z,58.36
2022-11-29T00:13:39.113Z,57.54
2022-11-29T00:16:12.830Z,58.59
2022-11-29T00:18:44.838Z,60.09
2022-11-29T00:21:16.630Z,64.18
2022-11-29T00:23:48.520Z,68.58
2022-11-29T00:26:20.582Z,67.48
2022-11-29T00:28:52.616Z,66.41
2022-11-29T00:31:26.927Z,65.79
2022-11-29T00:33:59.849Z,64.62
2022-11-29T00:36:31.738Z,63.61
2022-11-29T00:39:05.181Z,63.04
2022-11-29T00:41:37.975Z,62.08
2022-11-29T00:44:13.985Z,61.80
2022-11-29T00:46:48.948Z,61.48
2022-11-29T00:49:20.866Z,60.90
2022-11-29T00:51:52.626Z,60.24
2022-11-29T00:54:24.373Z,59.82
2022-11-29T00:56:56.287Z,57.51
2022-11-29T00:59:28.144Z,56.36
2022-11-29T01:02:00.346Z,57.44
2022-11-29T01:04:32.219Z,58.81
2022-11-29T01:07:04.060Z,62.43
2022-11-29T01:09:35.819Z,66.70
2022-11-29T01:12:08.216Z,66.49
2022-11-29T01:14:39.956Z,66.21
2022-11-29T01:17:11.693Z,65.20
2022-11-29T01:19:49.321Z,64.80
2022-11-29T01:22:22.449Z,63.94
2022-11-29T01:24:54.190Z,63.32
2022-11-29T01:27:26.201Z,62.19
2022-11-29T01:29:57.964Z,61.41
2022-11-29T01:32:29.778Z,61.71
2022-11-29T01:35:01.534Z,60.80
2022-11-29T01:37:33.534Z,60.55
2022-11-29T01:40:05.808Z,60.20
2022-11-29T01:42:37.620Z,57.62
2022-11-29T01:45:22.030Z,55.68
2022-11-29T01:47:57.426Z,56.30
2022-11-29T01:50:29.201Z,57.93
2022-11-29T01:53:01.385Z,59.58
2022-11-29T01:55:34.140Z,63.99
2022-11-29T01:58:07.723Z,69.12
2022-11-29T02:00:39.739Z,68.16
2022-11-29T02:03:14.419Z,66.02
2022-11-29T02:05:49.244Z,64.24
2022-11-29T02:08:26.200Z,62.53
2022-11-29T02:11:15.695Z,61.86
2022-11-29T02:14:02.141Z,61.25
2022-11-29T02:16:43.600Z,60.03
2022-11-29T02:19:33.844Z,56.69
2022-11-29T02:22:11.893Z,55.00
2022-11-29T02:24:58.912Z,56.46
2022-11-29T02:28:04.917Z,57.75
2022-11-29T02:31:00.220Z,60.57
2022-11-29T02:33:51.551Z,66.72
2022-11-29T02:36:37.341Z,70.32
2022-11-29T02:39:29.945Z,68.31
2022-11-29T02:42:21.330Z,66.03
2022-11-29T02:45:09.900Z,64.29
2022-11-29T02:47:56.358Z,62.83
2022-11-29T02:50:40.043Z,61.41
2022-11-29T02:53:18.981Z,60.30
2022-11-29T02:55:58.265Z,57.63
2022-11-29T02:58:37.167Z,56.50
2022-11-29T03:01:17.366Z,57.33
2022-11-29T03:04:01.147Z,59.22
2022-11-29T03:06:40.623Z,64.05
2022-11-29T03:09:20.267Z,67.87
2022-11-29T03:11:59.093Z,66.60
2022-11-29T03:14:39.487Z,64.99
2022-11-29T03:17:21.270Z,63.75
2022-11-29T03:20:09.074Z,62.80
2022-11-29T03:22:48.822Z,61.63
2022-11-29T03:25:30.490Z,60.69
2022-11-29T03:28:08.242Z,60.42
2022-11-29T03:30:45.554Z,59.94
2022-11-29T03:33:26.538Z,57.38
2022-11-29T03:36:05.662Z,56.12
2022-11-29T03:38:43.825Z,57.82
2022-11-29T03:41:26.358Z,60.51
2022-11-29T03:44:04.588Z,64.21
2022-11-29T03:46:43.379Z,68.13
2022-11-29T03:49:21.864Z,67.32
2022-11-29T03:52:02.007Z,66.02
2022-11-29T03:54:43.750Z,64.51
2022-11-29T03:57:21.687Z,63.05
2022-11-29T04:00:03.443Z,61.69
2022-11-29T04:03:14.266Z,60.49
2022-11-29T04:06:09.313Z,60.01
2022-11-29T04:08:57.935Z,56.93
2022-11-29T04:12:01.235Z,55.84
2022-11-29T04:15:15.592Z,58.60
2022-11-29T04:18:11.566Z,60.67
2022-11-29T04:21:07.742Z,66.06
2022-11-29T04:24:30.411Z,68.82
2022-11-29T04:27:27.519Z,67.02
2022-11-29T04:30:10.726Z,65.17
2022-11-29T04:33:14.354Z,63.81
2022-11-29T04:36:06.736Z,62.89
2022-11-29T04:39:16.279Z,61.60
2022-11-29T04:42:10.121Z,60.63
2022-11-29T04:44:56.446Z,59.99
2022-11-29T04:47:43.675Z,57.74
2022-11-29T04:50:26.967Z,56.43
2022-11-29T04:53:25.845Z,57.96
2022-11-29T04:56:07.484Z,59.37
2022-11-29T04:58:45.441Z,64.11
2022-11-29T05:01:26.714Z,68.21
2022-11-29T05:04:06.167Z,67.22
2022-11-29T05:06:46.129Z,65.28
2022-11-29T05:09:27.191Z,63.96
2022-11-29T05:12:10.050Z,62.89
2022-11-29T05:15:03.082Z,61.66
2022-11-29T05:17:43.509Z,60.82
2022-11-29T05:20:26.838Z,60.19
2022-11-29T05:23:13.879Z,59.92
2022-11-29T05:25:53.296Z,57.74
2022-11-29T05:28:34.365Z,57.02
2022-11-29T05:31:26.611Z,58.66
2022-11-29T05:34:16.785Z,61.47
2022-11-29T05:36:56.972Z,66.83
2022-11-29T05:39:39.503Z,68.83
2022-11-29T05:42:32.142Z,66.52
2022-11-29T05:45:11.244Z,64.44
2022-11-29T05:47:49.987Z,63.08
2022-11-29T05:50:29.801Z,61.53
2022-11-29T05:53:24.366Z,60.85
2022-11-29T05:56:04.249Z,60.66
2022-11-29T05:58:49.077Z,59.89
2022-11-29T06:01:25.901Z,57.15
2022-11-29T06:04:09.065Z,56.50
2022-11-29T06:06:49.121Z,57.81
2022-11-29T06:09:28.319Z,59.56
2022-11-29T06:12:05.418Z,64.15
2022-11-29T06:14:57.153Z,68.49
2022-11-29T06:17:45.370Z,66.47
2022-11-29T06:20:27.588Z,63.90
2022-11-29T06:23:16.651Z,63.06
2022-11-29T06:26:04.396Z,61.13
2022-11-29T06:28:45.347Z,60.32
2022-11-29T06:31:22.538Z,58.06
2022-11-29T06:34:02.569Z,57.02
2022-11-29T06:36:41.795Z,58.01
2022-11-29T06:39:15.030Z,59.62
2022-11-29T06:41:47.169Z,63.43
2022-11-29T06:44:19.744Z,67.52
2022-11-29T06:46:58.742Z,66.75
2022-11-29T06:49:33.491Z,64.98
2022-11-29T06:52:16.763Z,63.44
2022-11-29T06:55:03.864Z,62.27
2022-11-29T06:57:48.112Z,61.37
2022-11-29T07:00:24.000Z,60.59
2022-11-29T07:03:28.732Z,60.32
2022-11-29T07:06:03.749Z,59.98
2022-11-29T07:08:36.421Z,58.03
2022-11-29T07:11:10.500Z,57.47
2022-11-29T07:13:43.381Z,58.84
2022-11-29T07:16:25.860Z,61.30
2022-11-29T07:19:13.144Z,65.14
2022-11-29T07:21:55.778Z,68.11
2022-11-29T07:24:41.316Z,66.27
2022-11-29T07:27:19.478Z,64.94
2022-11-29T07:30:05.546Z,64.05
2022-11-29T07:32:51.365Z,62.73
2022-11-29T07:35:33.716Z,61.83
2022-11-29T07:38:16.842Z,61.39
2022-11-29T07:40:58.508Z,60.55
2022-11-29T07:43:44.883Z,60.27
2022-11-29T07:46:16.744Z,57.71
2022-11-29T07:48:48.490Z,56.00
2022-11-29T07:51:20.356Z,56.92
2022-11-29T07:53:52.129Z,58.90
2022-11-29T07:56:23.896Z,61.73
2022-11-29T07:58:55.994Z,65.03
2022-11-29T08:01:27.851Z,67.31
2022-11-29T08:03:59.669Z,66.85
2022-11-29T08:06:31.466Z,65.31
2022-11-29T08:09:04.214Z,64.11
2022-11-29T08:11:36.001Z,63.23
2022-11-29T08:14:08.008Z,62.41
2022-11-29T08:16:39.788Z,61.61
2022-11-29T08:19:11.660Z,60.66
2022-11-29T08:21:47.057Z,59.82
2022-11-29T08:24:18.882Z,57.67
2022-11-29T08:26:51.200Z,56.90
2022-11-29T08:29:23.764Z,57.33
2022-11-29T08:31:56.266Z,59.00
2022-11-29T08:34:28.410Z,61.78
2022-11-29T08:37:00.189Z,65.16
2022-11-29T08:39:32.139Z,67.68
2022-11-29T08:42:03.869Z,66.60
2022-11-29T08:44:35.624Z,64.75
2022-11-29T08:47:25.263Z,62.96
2022-11-29T08:50:03.139Z,61.93
2022-11-29T08:52:54.909Z,60.46
2022-11-29T08:55:29.372Z,58.43
2022-11-29T08:58:06.271Z,56.77
2022-11-29T09:00:38.576Z,58.91
2022-11-29T09:03:28.022Z,60.99
2022-11-29T09:05:59.916Z,64.21
2022-11-29T09:08:31.658Z,65.98
2022-11-29T09:11:07.906Z,65.37
2022-11-29T09:13:39.845Z,64.67
2022-11-29T09:16:15.483Z,64.09
2022-11-29T09:18:51.861Z,63.25
2022-11-29T09:21:25.929Z,62.88
2022-11-29T09:23:59.824Z,63.43
2022-11-29T09:26:34.746Z,62.10
2022-11-29T09:29:08.098Z,61.61
2022-11-29T09:31:40.531Z,60.79
2022-11-29T09:34:14.955Z,59.82
2022-11-29T09:36:47.924Z,57.53
2022-11-29T09:39:20.133Z,57.42
2022-11-29T09:42:13.528Z,58.86
2022-11-29T09:44:57.310Z,61.31
2022-11-29T09:47:39.397Z,64.09
2022-11-29T09:50:22.665Z,66.52
2022-11-29T09:53:09.787Z,66.15
2022-11-29T09:55:58.360Z,64.82
2022-11-29T09:58:37.124Z,63.35
2022-11-29T10:01:13.968Z,61.52
2022-11-29T10:03:51.820Z,60.34
2022-11-29T10:06:27.951Z,57.82
2022-11-29T10:09:03.764Z,56.50
2022-11-29T10:11:42.757Z,58.26
2022-11-29T10:14:20.873Z,59.95
2022-11-29T10:16:57.485Z,62.10
2022-11-29T10:19:36.223Z,64.33
2022-11-29T10:22:15.434Z,66.07
2022-11-29T10:24:52.021Z,65.32
2022-11-29T10:27:25.096Z,63.65
2022-11-29T10:29:57.950Z,62.42
2022-11-29T10:32:32.492Z,61.43
2022-11-29T10:35:07.098Z,60.76
2022-11-29T10:37:39.379Z,60.34
2022-11-29T10:40:17.751Z,60.73
2022-11-29T10:42:49.922Z,60.08
2022-11-29T10:45:27.181Z,58.33
2022-11-29T10:48:03.882Z,56.92
2022-11-29T10:50:37.929Z,58.99
2022-11-29T10:53:11.900Z,60.52
2022-11-29T10:55:48.376Z,62.97
2022-11-29T10:58:27.880Z,65.31
2022-11-29T11:01:02.297Z,64.61
2022-11-29T11:03:40.867Z,64.33
2022-11-29T11:06:16.781Z,63.24
2022-11-29T11:08:52.482Z,61.73
2022-11-29T11:11:32.453Z,59.77
2022-11-29T11:14:07.161Z,57.33
2022-11-29T11:16:39.187Z,56.90
2022-11-29T11:19:27.816Z,58.18
2022-11-29T11:22:01.410Z,60.12
2022-11-29T11:24:35.304Z,60.84
2022-11-29T11:27:07.515Z,63.55
2022-11-29T11:29:42.073Z,65.59
2022-11-29T11:32:20.589Z,64.93
2022-11-29T11:34:56.878Z,63.61
2022-11-29T11:37:30.289Z,63.03
2022-11-29T11:40:20.677Z,62.02
2022-11-29T11:42:52.804Z,61.16
2022-11-29T11:45:35.077Z,59.57
2022-11-29T11:48:13.473Z,57.61
2022-11-29T11:50:45.562Z,56.91
2022-11-29T11:53:25.312Z,57.74
2022-11-29T11:56:01.276Z,60.06
2022-11-29T11:58:35.244Z,62.31
2022-11-29T12:01:26.027Z,65.27
2022-11-29T12:04:07.145Z,65.75
2022-11-29T12:06:44.997Z,64.59
2022-11-29T12:09:29.060Z,63.61
2022-11-29T12:12:08.433Z,62.61
2022-11-29T12:14:51.490Z,60.43
2022-11-29T12:17:33.521Z,58.49
2022-11-29T12:20:20.411Z,57.62
2022-11-29T12:23:13.861Z,59.06
2022-11-29T12:25:50.527Z,60.23
2022-11-29T12:28:26.611Z,64.01
2022-11-29T12:31:09.370Z,65.73
2022-11-29T12:33:50.990Z,64.43
2022-11-29T12:36:47.136Z,62.97
2022-11-29T12:39:38.811Z,61.02
2022-11-29T12:42:19.423Z,60.47
2022-11-29T12:45:01.148Z,60.18
2022-11-29T12:47:51.511Z,57.48
2022-11-29T12:50:36.011Z,56.61
2022-11-29T12:53:27.214Z,58.21
2022-11-29T12:56:13.693Z,60.48
2022-11-29T12:59:02.722Z,64.68
2022-11-29T13:01:59.387Z,66.88
2022-11-29T13:04:41.948Z,64.28
2022-11-29T13:07:22.762Z,63.08
2022-11-29T13:10:18.631Z,62.14
2022-11-29T13:12:55.032Z,61.10
2022-11-29T13:15:38.208Z,57.82
2022-11-29T13:18:20.788Z,55.85
2022-11-29T13:20:59.563Z,57.00
2022-11-29T13:24:07.230Z,59.01
2022-11-29T13:26:34.200Z,60.34
2022-11-29T13:29:08.540Z,64.81
2022-11-29T13:31:42.265Z,67.40
2022-11-29T13:34:20.804Z,65.15
2022-11-29T13:37:03.659Z,62.28
2022-11-29T13:40:00.583Z,60.96
2022-11-29T13:42:40.740Z,60.07
2022-11-29T13:45:22.704Z,57.86
2022-11-29T13:47:56.941Z,58.15
2022-11-29T13:50:44.503Z,59.76
2022-11-29T13:53:19.101Z,61.69
2022-11-29T13:56:00.112Z,65.75
2022-11-29T13:58:39.305Z,67.77
2022-11-29T14:01:14.597Z,65.97
2022-11-29T14:03:49.055Z,63.47
2022-11-29T14:06:23.686Z,61.96
2022-11-29T14:09:23.787Z,60.53
2022-11-29T14:12:02.401Z,57.56
2022-11-29T14:14:40.626Z,57.20
2022-11-29T14:17:35.056Z,59.06
2022-11-29T14:20:51.807Z,60.95
2022-11-29T14:23:44.430Z,66.10
2022-11-29T14:26:31.962Z,67.63
2022-11-29T14:29:06.374Z,65.52
2022-11-29T14:31:54.418Z,63.49
2022-11-29T14:34:42.154Z,61.67
2022-11-29T14:37:41.491Z,60.93
2022-11-29T14:40:27.649Z,57.17
2022-11-29T14:43:01.617Z,56.26
2022-11-29T14:45:35.793Z,57.84
2022-11-29T14:48:25.072Z,60.00
2022-11-29T14:51:10.555Z,63.74
2022-11-29T14:53:44.018Z,66.57
2022-11-29T14:56:42.587Z,65.55
2022-11-29T14:59:48.449Z,63.35
2022-11-29T15:02:34.172Z,62.21
2022-11-29T15:05:21.857Z,60.29
2022-11-29T15:08:02.890Z,56.50
2022-11-29T15:10:40.339Z,55.42
2022-11-29T15:13:16.199Z,55.88
2022-11-29T15:16:13.074Z,58.64
2022-11-29T15:19:12.279Z,60.86
2022-11-29T15:21:52.419Z,65.47
2022-11-29T15:24:28.279Z,67.41
2022-11-29T15:27:02.419Z,65.14
2022-11-29T15:29:34.675Z,63.33
2022-11-29T15:32:08.129Z,61.96
2022-11-29T15:34:45.296Z,61.29
2022-11-29T15:37:25.063Z,60.41
2022-11-29T15:40:11.831Z,57.91
2022-11-29T15:42:47.243Z,56.50
2022-11-29T15:45:36.922Z,57.89
2022-11-29T15:48:19.113Z,59.51
2022-11-29T15:51:03.755Z,63.49
2022-11-29T15:53:39.836Z,66.56
2022-11-29T15:56:16.382Z,65.54
2022-11-29T15:58:50.929Z,63.27
2022-11-29T16:01:23.621Z,61.67
2022-11-29T16:03:58.201Z,60.37
2022-11-29T16:06:35.615Z,58.24
2022-11-29T16:09:12.457Z,56.97
2022-11-29T16:11:44.744Z,58.74
2022-11-29T16:14:25.344Z,60.67
2022-11-29T16:16:59.814Z,64.78
2022-11-29T16:19:38.025Z,66.90
2022-11-29T16:22:18.410Z,65.81
2022-11-29T16:25:04.691Z,64.85
2022-11-29T16:27:37.788Z,63.37
2022-11-29T16:30:23.502Z,61.44
2022-11-29T16:32:59.156Z,60.22
2022-11-29T16:35:33.862Z,57.25
2022-11-29T16:38:18.447Z,55.59
2022-11-29T16:41:05.895Z,56.57
2022-11-29T16:43:55.371Z,58.21
2022-11-29T16:46:33.758Z,60.62
2022-11-29T16:49:36.026Z,64.68
2022-11-29T16:52:27.060Z,67.96
2022-11-29T16:54:59.326Z,65.83
2022-11-29T16:57:34.321Z,62.81
2022-11-29T17:00:13.281Z,61.17
2022-11-29T17:02:45.730Z,58.24
2022-11-29T17:05:18.047Z,56.21
2022-11-29T17:07:51.092Z,57.72
2022-11-29T17:10:26.075Z,58.82
2022-11-29T17:12:58.024Z,60.54
2022-11-29T17:15:30.379Z,64.51
2022-11-29T17:18:02.343Z,67.87
2022-11-29T17:20:34.257Z,65.70
2022-11-29T17:23:06.522Z,63.25
2022-11-29T17:25:39.129Z,61.25
2022-11-29T17:28:11.088Z,60.07
2022-11-29T17:30:43.095Z,59.79
2022-11-29T17:33:14.996Z,57.61
2022-11-29T17:35:46.796Z,56.33
2022-11-29T17:38:18.884Z,57.51
2022-11-29T17:40:51.391Z,60.10
2022-11-29T17:43:23.532Z,63.64
2022-11-29T17:45:55.469Z,66.72
2022-11-29T17:48:32.110Z,65.08
2022-11-29T17:51:17.247Z,63.39
2022-11-29T17:54:00.724Z,62.13
2022-11-29T17:56:33.053Z,61.05
2022-11-29T17:59:06.197Z,60.58
2022-11-29T18:01:38.890Z,59.93
2022-11-29T18:04:10.897Z,57.22
2022-11-29T18:06:43.617Z,55.76
2022-11-29T18:09:15.550Z,57.25
2022-11-29T18:11:49.933Z,59.47
2022-11-29T18:14:25.331Z,61.39
2022-11-29T18:16:57.437Z,64.21
2022-11-29T18:19:30.063Z,66.93
2022-11-29T18:22:02.849Z,66.31
2022-11-29T18:24:34.723Z,64.37
2022-11-29T18:27:06.637Z,62.13
2022-11-29T18:29:40.974Z,60.72
2022-11-29T18:32:12.905Z,58.31
2022-11-29T18:34:44.971Z,56.63
2022-11-29T18:37:33.715Z,58.07
2022-11-29T18:40:11.266Z,59.86
2022-11-29T18:42:43.021Z,63.66
2022-11-29T18:45:15.148Z,66.35
2022-11-29T18:47:47.203Z,65.35
2022-11-29T18:50:19.546Z,64.10
2022-11-29T18:52:55.703Z,62.47
2022-11-29T18:55:27.712Z,61.37
2022-11-29T18:57:59.467Z,60.04
2022-11-29T19:00:32.345Z,58.18
2022-11-29T19:03:04.937Z,56.43
2022-11-29T19:05:36.688Z,57.15
2022-11-29T19:08:08.846Z,58.93
2022-11-29T19:10:41.472Z,60.60
2022-11-29T19:13:13.249Z,63.96
2022-11-29T19:15:45.300Z,66.36
2022-11-29T19:18:17.201Z,65.62
2022-11-29T19:20:49.334Z,64.97
2022-11-29T19:23:21.608Z,64.61
2022-11-29T19:25:53.371Z,63.66
2022-11-29T19:28:25.134Z,61.96
2022-11-29T19:30:58.146Z,60.54
2022-11-29T19:33:29.913Z,57.89
2022-11-29T19:36:07.486Z,57.02
2022-11-29T19:38:39.810Z,57.98
2022-11-29T19:41:12.788Z,60.36
2022-11-29T19:43:45.201Z,63.31
2022-11-29T19:46:19.862Z,66.46
2022-11-29T19:48:54.529Z,66.00
2022-11-29T19:51:27.370Z,63.83
2022-11-29T19:54:03.301Z,61.48
2022-11-29T19:56:35.313Z,58.45
2022-11-29T19:59:08.800Z,56.56
2022-11-29T20:01:42.752Z,57.19
2022-11-29T20:04:16.884Z,58.65
2022-11-29T20:06:51.518Z,60.13
2022-11-29T20:09:23.745Z,63.23
2022-11-29T20:11:55.514Z,67.95
2022-11-29T20:14:27.750Z,66.52
2022-11-29T20:16:59.954Z,64.05
2022-11-29T20:19:32.199Z,62.33
2022-11-29T20:22:04.019Z,60.84
2022-11-29T20:24:41.338Z,57.54
2022-11-29T20:27:16.851Z,54.93
2022-11-29T20:29:49.305Z,56.17
2022-11-29T20:32:22.243Z,57.79
2022-11-29T20:34:55.089Z,59.46
2022-11-29T20:37:49.448Z,63.19
2022-11-29T20:40:25.561Z,67.54
2022-11-29T20:43:11.482Z,64.73
2022-11-29T20:45:44.275Z,62.59
2022-11-29T20:48:21.195Z,60.89
2022-11-29T20:50:58.388Z,57.66
2022-11-29T20:53:40.190Z,55.56
2022-11-29T20:56:13.014Z,55.85
2022-11-29T20:58:45.141Z,57.88
2022-11-29T21:01:16.972Z,59.80
2022-11-29T21:03:48.895Z,63.70
2022-11-29T21:06:20.696Z,67.93
2022-11-29T21:08:52.586Z,66.15
2022-11-29T21:11:25.430Z,63.68
2022-11-29T21:13:58.428Z,61.45
2022-11-29T21:16:34.320Z,57.92
2022-11-29T21:19:07.273Z,55.91
2022-11-29T21:21:44.923Z,56.66
2022-11-29T21:24:31.327Z,57.84
2022-11-29T21:27:04.470Z,59.40
2022-11-29T21:29:37.173Z,64.33
2022-11-29T21:32:19.435Z,67.67
2022-11-29T21:34:51.504Z,65.71
2022-11-29T21:37:27.569Z,62.89
2022-11-29T21:39:59.324Z,61.22
2022-11-29T21:42:31.290Z,58.20
2022-11-29T21:45:03.415Z,56.06
2022-11-29T21:47:35.606Z,57.23
2022-11-29T21:50:09.169Z,59.16
2022-11-29T21:52:41.045Z,60.72
2022-11-29T21:55:13.356Z,64.60
2022-11-29T21:57:45.411Z,68.33
2022-11-29T22:00:18.866Z,66.48
2022-11-29T22:02:53.196Z,64.12
2022-11-29T22:05:25.126Z,61.64
2022-11-29T22:07:59.048Z,58.25
2022-11-29T22:10:32.449Z,56.14
2022-11-29T22:13:04.601Z,56.55
2022-11-29T22:15:36.370Z,58.54
2022-11-29T22:18:08.482Z,61.37
2022-11-29T22:20:40.245Z,65.18
2022-11-29T22:23:12.086Z,67.82
2022-11-29T22:25:43.815Z,66.31
2022-11-29T22:28:15.562Z,63.78
2022-11-29T22:30:47.314Z,62.12
2022-11-29T22:33:19.083Z,60.62
2022-11-29T22:35:51.333Z,57.49
2022-11-29T22:38:23.078Z,55.74
2022-11-29T22:40:54.843Z,57.05
2022-11-29T22:43:26.600Z,58.21
2022-11-29T22:46:03.708Z,59.82
2022-11-29T22:48:38.881Z,64.02
2022-11-29T22:51:13.479Z,67.77
2022-11-29T22:53:49.829Z,66.07
2022-11-29T22:56:22.316Z,63.68
2022-11-29T22:58:54.534Z,61.48
2022-11-29T23:01:29.071Z,58.06
2022-11-29T23:04:04.101Z,55.42
2022-11-29T23:06:37.429Z,56.79
2022-11-29T23:09:12.156Z,57.86
2022-11-29T23:11:44.855Z,58.99
2022-11-29T23:14:16.565Z,60.97
2022-11-29T23:16:48.368Z,65.06
2022-11-29T23:19:21.653Z,68.89
2022-11-29T23:21:53.397Z,66.63
2022-11-29T23:24:25.282Z,63.52
2022-11-29T23:26:57.001Z,61.37
2022-11-29T23:29:28.784Z,60.01
2022-11-29T23:32:00.523Z,56.99
2022-11-29T23:34:33.702Z,55.78
2022-11-29T23:37:05.492Z,57.05
2022-11-29T23:39:38.061Z,58.91
2022-11-29T23:42:09.904Z,61.56
2022-11-29T23:44:41.699Z,65.29
2022-11-29T23:47:13.453Z,67.63
2022-11-29T23:49:45.178Z,66.14
2022-11-29T23:52:17.117Z,63.46
2022-11-29T23:54:50.171Z,61.60
2022-11-29T23:57:21.909Z,60.01
2022-11-29T23:59:53.656Z,57.09
